VCP32EF EGNV-GCTS
Flight info
| Callsign | VCP32EF |
|---|---|
| Flight time | N/A |
| Altitude | 33000 |
| Route | GASKO P18 POL Y70 CROFT UL612 HON UN859 CPT Y321 PEPIS Q41 SAM N63 LELNA DCT BALDA N480 MAVOS M30 VES N872 RALUS UN872 BEXAL UN866 KONBA |
| Aircraft | B738/M-SDE2E3FGHIRWXY/LB1 |
Departure
| Time | 2026-05-07 16:20 |
|---|---|
| Airport | Teesside International Airport (EGNV) |
Arrival
| Time | N/A |
|---|---|
| Airport | Tenerife Sur Airport (GCTS) |
| Time | Latitude | Longitude | Altitude | Speed | Heading |
|---|---|---|---|---|---|
| 2026-05-07 15:34 | 54.51123 | -1.43304 | 114 ft | 0 kts | 330° |
| 2026-05-07 16:06 | 54.51111 | -1.43292 | 114 ft | 4 kts | 330° |
| 2026-05-07 16:07 | 54.51088 | -1.43269 | 111 ft | 2 kts | 329° |
| 2026-05-07 16:07 | 54.51069 | -1.43250 | 112 ft | 4 kts | 330° |
| 2026-05-07 16:07 | 54.51052 | -1.43230 | 110 ft | 4 kts | 5° |
| 2026-05-07 16:07 | 54.51053 | -1.43228 | 110 ft | 4 kts | 68° |
| 2026-05-07 16:08 | 54.51041 | -1.43267 | 110 ft | 4 kts | 59° |
| 2026-05-07 16:08 | 54.51029 | -1.43304 | 110 ft | 2 kts | 59° |
| 2026-05-07 16:08 | 54.51028 | -1.43305 | 114 ft | 0 kts | 59° |
| 2026-05-07 16:10 | 54.51036 | -1.43283 | 111 ft | 4 kts | 59° |
| 2026-05-07 16:11 | 54.51054 | -1.43231 | 114 ft | 5 kts | 59° |
| 2026-05-07 16:11 | 54.51065 | -1.43168 | 114 ft | 6 kts | 84° |
| 2026-05-07 16:11 | 54.51065 | -1.43154 | 113 ft | 0 kts | 86° |
| 2026-05-07 16:11 | 54.51070 | -1.43146 | 114 ft | 2 kts | 38° |
| 2026-05-07 16:12 | 54.51076 | -1.43147 | 114 ft | 2 kts | 1° |
| 2026-05-07 16:12 | 54.51101 | -1.43150 | 114 ft | 4 kts | 359° |
| 2026-05-07 16:12 | 54.51129 | -1.43132 | 113 ft | 4 kts | 37° |
| 2026-05-07 16:12 | 54.51150 | -1.43092 | 113 ft | 5 kts | 53° |
| 2026-05-07 16:13 | 54.51171 | -1.43033 | 114 ft | 7 kts | 59° |
| 2026-05-07 16:13 | 54.51199 | -1.42954 | 114 ft | 9 kts | 59° |
| 2026-05-07 16:13 | 54.51232 | -1.42860 | 112 ft | 10 kts | 58° |
| 2026-05-07 16:13 | 54.51260 | -1.42756 | 112 ft | 9 kts | 65° |
| 2026-05-07 16:14 | 54.51298 | -1.42665 | 113 ft | 9 kts | 47° |
| 2026-05-07 16:14 | 54.51350 | -1.42605 | 113 ft | 9 kts | 26° |
| 2026-05-07 16:14 | 54.51409 | -1.42576 | 111 ft | 9 kts | 12° |
| 2026-05-07 16:14 | 54.51468 | -1.42554 | 113 ft | 9 kts | 12° |
| 2026-05-07 16:15 | 54.51536 | -1.42528 | 112 ft | 11 kts | 12° |
| 2026-05-07 16:15 | 54.51610 | -1.42501 | 113 ft | 11 kts | 12° |
| 2026-05-07 16:15 | 54.51683 | -1.42475 | 113 ft | 10 kts | 12° |
| 2026-05-07 16:15 | 54.51761 | -1.42442 | 110 ft | 14 kts | 19° |
| 2026-05-07 16:16 | 54.51808 | -1.42307 | 114 ft | 14 kts | 86° |
| 2026-05-07 16:16 | 54.51805 | -1.42146 | 112 ft | 13 kts | 92° |
| 2026-05-07 16:16 | 54.51801 | -1.41992 | 113 ft | 13 kts | 92° |
| 2026-05-07 16:16 | 54.51786 | -1.41844 | 114 ft | 12 kts | 114° |
| 2026-05-07 16:17 | 54.51736 | -1.41754 | 113 ft | 6 kts | 151° |
| 2026-05-07 16:17 | 54.51728 | -1.41748 | 115 ft | 0 kts | 155° |
| 2026-05-07 16:17 | 54.51727 | -1.41747 | 114 ft | 1 kts | 155° |
| 2026-05-07 16:18 | 54.51707 | -1.41731 | 111 ft | 5 kts | 156° |
| 2026-05-07 16:18 | 54.51673 | -1.41710 | 114 ft | 5 kts | 166° |
| 2026-05-07 16:18 | 54.51636 | -1.41691 | 116 ft | 6 kts | 159° |
| 2026-05-07 16:18 | 54.51603 | -1.41669 | 117 ft | 5 kts | 201° |
| 2026-05-07 16:19 | 54.51575 | -1.41716 | 118 ft | 6 kts | 227° |
| 2026-05-07 16:19 | 54.51472 | -1.41907 | 119 ft | 52 kts | 227° |
| 2026-05-07 16:19 | 54.51068 | -1.42663 | 119 ft | 118 kts | 227° |
| 2026-05-07 16:19 | 54.50415 | -1.43892 | 141 ft | 149 kts | 226° |
| 2026-05-07 16:20 | 54.49764 | -1.45240 | 362 ft | 145 kts | 222° |
| 2026-05-07 16:20 | 54.49080 | -1.46564 | 462 ft | 150 kts | 224° |
| 2026-05-07 16:20 | 54.48403 | -1.47915 | 731 ft | 148 kts | 226° |
| 2026-05-07 16:20 | 54.47774 | -1.49310 | 921 ft | 147 kts | 227° |
| 2026-05-07 16:21 | 54.47180 | -1.50734 | 1144 ft | 147 kts | 231° |
| 2026-05-07 16:21 | 54.46618 | -1.52249 | 1244 ft | 154 kts | 233° |
| 2026-05-07 16:21 | 54.46019 | -1.53783 | 1407 ft | 156 kts | 226° |
| 2026-05-07 16:21 | 54.45330 | -1.55268 | 1523 ft | 161 kts | 227° |
| 2026-05-07 16:22 | 54.44596 | -1.56781 | 1618 ft | 169 kts | 225° |
| 2026-05-07 16:22 | 54.43834 | -1.58360 | 1758 ft | 175 kts | 226° |
| 2026-05-07 16:22 | 54.43053 | -1.60048 | 1838 ft | 186 kts | 227° |
| 2026-05-07 16:22 | 54.42231 | -1.61791 | 1941 ft | 193 kts | 226° |
| 2026-05-07 16:23 | 54.41316 | -1.63557 | 2045 ft | 199 kts | 225° |
| 2026-05-07 16:23 | 54.40385 | -1.65325 | 2185 ft | 207 kts | 226° |
| 2026-05-07 16:23 | 54.39443 | -1.67191 | 2559 ft | 207 kts | 226° |
| 2026-05-07 16:23 | 54.38505 | -1.69087 | 2871 ft | 207 kts | 225° |
| 2026-05-07 16:24 | 54.37359 | -1.70569 | 3175 ft | 207 kts | 198° |
| 2026-05-07 16:24 | 54.35915 | -1.70717 | 3363 ft | 214 kts | 166° |
| 2026-05-07 16:24 | 54.34610 | -1.69481 | 3643 ft | 221 kts | 136° |
| 2026-05-07 16:24 | 54.33858 | -1.67214 | 3929 ft | 229 kts | 105° |
| 2026-05-07 16:25 | 54.33908 | -1.64422 | 3946 ft | 244 kts | 71° |
| 2026-05-07 16:25 | 54.34847 | -1.61997 | 3982 ft | 250 kts | 44° |
| 2026-05-07 16:25 | 54.36189 | -1.60041 | 3989 ft | 256 kts | 38° |
| 2026-05-07 16:25 | 54.37621 | -1.58172 | 3975 ft | 262 kts | 37° |
| 2026-05-07 16:26 | 54.39090 | -1.56273 | 3987 ft | 267 kts | 37° |
| 2026-05-07 16:26 | 54.40579 | -1.54332 | 3981 ft | 269 kts | 37° |
| 2026-05-07 16:26 | 54.42064 | -1.52366 | 4000 ft | 270 kts | 38° |
| 2026-05-07 16:26 | 54.43064 | -1.51029 | 3997 ft | 269 kts | 38° |
| 2026-05-07 16:27 | 54.44534 | -1.49056 | 3990 ft | 267 kts | 38° |
| 2026-05-07 16:27 | 54.45973 | -1.47113 | 3976 ft | 266 kts | 38° |
| 2026-05-07 16:27 | 54.47418 | -1.45151 | 3997 ft | 264 kts | 38° |
| 2026-05-07 16:27 | 54.48857 | -1.43192 | 3990 ft | 263 kts | 39° |
| 2026-05-07 16:28 | 54.50288 | -1.41240 | 3988 ft | 262 kts | 38° |
| 2026-05-07 16:28 | 54.51730 | -1.39271 | 3997 ft | 261 kts | 38° |
| 2026-05-07 16:28 | 54.53126 | -1.37360 | 3988 ft | 259 kts | 38° |
| 2026-05-07 16:28 | 54.54539 | -1.35423 | 4001 ft | 258 kts | 38° |
| 2026-05-07 16:29 | 54.55944 | -1.33504 | 3998 ft | 258 kts | 34° |
| 2026-05-07 16:29 | 54.57566 | -1.32360 | 4005 ft | 251 kts | 5° |
| 2026-05-07 16:29 | 54.59288 | -1.31913 | 3999 ft | 250 kts | 7° |
| 2026-05-07 16:29 | 54.60992 | -1.31331 | 3998 ft | 249 kts | 9° |
| 2026-05-07 16:30 | 54.62685 | -1.30692 | 3985 ft | 248 kts | 10° |
| 2026-05-07 16:30 | 54.64363 | -1.30034 | 3991 ft | 247 kts | 11° |
| 2026-05-07 16:30 | 54.66033 | -1.29371 | 3992 ft | 245 kts | 11° |
| 2026-05-07 16:30 | 54.67559 | -1.28119 | 3973 ft | 244 kts | 45° |
| 2026-05-07 16:31 | 54.68439 | -1.25690 | 3988 ft | 240 kts | 77° |
| 2026-05-07 16:31 | 54.68581 | -1.22837 | 3975 ft | 240 kts | 103° |
| 2026-05-07 16:31 | 54.67976 | -1.20209 | 3975 ft | 233 kts | 131° |
| 2026-05-07 16:31 | 54.66773 | -1.18430 | 3972 ft | 227 kts | 158° |
| 2026-05-07 16:32 | 54.65271 | -1.17816 | 3980 ft | 221 kts | 184° |
| 2026-05-07 16:32 | 54.63783 | -1.18364 | 3980 ft | 220 kts | 204° |
| 2026-05-07 16:32 | 54.62524 | -1.19854 | 3970 ft | 223 kts | 226° |
| 2026-05-07 16:32 | 54.61523 | -1.21909 | 3988 ft | 224 kts | 229° |
| 2026-05-07 16:33 | 54.60530 | -1.24010 | 3976 ft | 227 kts | 229° |
| 2026-05-07 16:33 | 54.59527 | -1.26126 | 3969 ft | 229 kts | 229° |
| 2026-05-07 16:33 | 54.58509 | -1.28259 | 3982 ft | 231 kts | 229° |
| 2026-05-07 16:33 | 54.57483 | -1.30409 | 3981 ft | 233 kts | 229° |
| 2026-05-07 16:34 | 54.56447 | -1.32579 | 3976 ft | 236 kts | 229° |
| 2026-05-07 16:34 | 54.55512 | -1.34905 | 3942 ft | 239 kts | 248° |
| 2026-05-07 16:34 | 54.55315 | -1.37738 | 3983 ft | 244 kts | 274° |
| 2026-05-07 16:34 | 54.55908 | -1.40504 | 3984 ft | 253 kts | 300° |
| 2026-05-07 16:35 | 54.57215 | -1.42596 | 3956 ft | 264 kts | 329° |
| 2026-05-07 16:35 | 54.59008 | -1.43334 | 3979 ft | 272 kts | 1° |
| 2026-05-07 16:35 | 54.60796 | -1.42319 | 3965 ft | 276 kts | 36° |
| 2026-05-07 16:35 | 54.62118 | -1.39939 | 3991 ft | 276 kts | 51° |
| 2026-05-07 16:36 | 54.63313 | -1.37365 | 3986 ft | 278 kts | 51° |
| 2026-05-07 16:36 | 54.64529 | -1.34757 | 3973 ft | 280 kts | 51° |
| 2026-05-07 16:36 | 54.65741 | -1.32116 | 3957 ft | 281 kts | 57° |
| 2026-05-07 16:36 | 54.66366 | -1.28998 | 3965 ft | 273 kts | 92° |
| 2026-05-07 16:37 | 54.65911 | -1.25935 | 3971 ft | 261 kts | 126° |
| 2026-05-07 16:37 | 54.64660 | -1.23809 | 3983 ft | 250 kts | 154° |
| 2026-05-07 16:37 | 54.63034 | -1.22977 | 3976 ft | 242 kts | 180° |
| 2026-05-07 16:37 | 54.61407 | -1.23461 | 3976 ft | 238 kts | 203° |
| 2026-05-07 16:38 | 54.60025 | -1.25040 | 3964 ft | 236 kts | 225° |
| 2026-05-07 16:38 | 54.58963 | -1.27187 | 3982 ft | 235 kts | 230° |
| 2026-05-07 16:38 | 54.57948 | -1.29400 | 3975 ft | 235 kts | 230° |
| 2026-05-07 16:38 | 54.56924 | -1.31584 | 3973 ft | 234 kts | 227° |
| 2026-05-07 16:39 | 54.55845 | -1.33630 | 3957 ft | 233 kts | 226° |
| 2026-05-07 16:39 | 54.54745 | -1.35666 | 3967 ft | 232 kts | 226° |
| 2026-05-07 16:39 | 54.53644 | -1.37713 | 4142 ft | 230 kts | 226° |
| 2026-05-07 16:39 | 54.52586 | -1.39718 | 4502 ft | 229 kts | 227° |
| 2026-05-07 16:40 | 54.51530 | -1.41722 | 5037 ft | 219 kts | 226° |
| 2026-05-07 16:40 | 54.50526 | -1.43622 | 5499 ft | 214 kts | 227° |
| 2026-05-07 16:40 | 54.49521 | -1.45519 | 5806 ft | 215 kts | 227° |
| 2026-05-07 16:40 | 54.48513 | -1.47415 | 6096 ft | 216 kts | 227° |
| 2026-05-07 16:41 | 54.47492 | -1.49345 | 6307 ft | 220 kts | 227° |
| 2026-05-07 16:41 | 54.46466 | -1.51298 | 6632 ft | 219 kts | 227° |
| 2026-05-07 16:41 | 54.45433 | -1.53253 | 6839 ft | 222 kts | 227° |
| 2026-05-07 16:41 | 54.44395 | -1.55209 | 7112 ft | 223 kts | 227° |
| 2026-05-07 16:42 | 54.43348 | -1.57169 | 7388 ft | 221 kts | 227° |
| 2026-05-07 16:42 | 54.42297 | -1.59131 | 7613 ft | 223 kts | 226° |
| 2026-05-07 16:42 | 54.41246 | -1.61089 | 7886 ft | 223 kts | 225° |
| 2026-05-07 16:42 | 54.40190 | -1.63052 | 8106 ft | 224 kts | 225° |
| 2026-05-07 16:43 | 54.39127 | -1.65022 | 8353 ft | 225 kts | 225° |
| 2026-05-07 16:43 | 54.38055 | -1.66999 | 8580 ft | 227 kts | 225° |
| 2026-05-07 16:43 | 54.36958 | -1.69021 | 8638 ft | 235 kts | 225° |
| 2026-05-07 16:43 | 54.35840 | -1.71081 | 8752 ft | 241 kts | 225° |
| 2026-05-07 16:44 | 54.34694 | -1.73192 | 8978 ft | 243 kts | 225° |
| 2026-05-07 16:44 | 54.33537 | -1.75319 | 9206 ft | 244 kts | 225° |
| 2026-05-07 16:44 | 54.32380 | -1.77449 | 9484 ft | 244 kts | 225° |
| 2026-05-07 16:44 | 54.31222 | -1.79578 | 9730 ft | 245 kts | 225° |
| 2026-05-07 16:45 | 54.30057 | -1.81717 | 9943 ft | 247 kts | 225° |
| 2026-05-07 16:45 | 54.28865 | -1.83901 | 10011 ft | 257 kts | 225° |
| 2026-05-07 16:45 | 54.27636 | -1.86139 | 10019 ft | 257 kts | 225° |
| 2026-05-07 16:45 | 54.26424 | -1.88357 | 10005 ft | 254 kts | 226° |
| 2026-05-07 16:46 | 54.25226 | -1.90556 | 10002 ft | 251 kts | 226° |
| 2026-05-07 16:46 | 54.24043 | -1.92729 | 9996 ft | 248 kts | 226° |
| 2026-05-07 16:46 | 54.22868 | -1.94891 | 9993 ft | 247 kts | 225° |
| 2026-05-07 16:46 | 54.21768 | -1.97130 | 10006 ft | 246 kts | 232° |
| 2026-05-07 16:47 | 54.20800 | -1.99533 | 10008 ft | 246 kts | 233° |
| 2026-05-07 16:47 | 54.19843 | -2.01948 | 10000 ft | 245 kts | 233° |
| 2026-05-07 16:47 | 54.18881 | -2.04340 | 10009 ft | 243 kts | 233° |
| 2026-05-07 16:47 | 54.17914 | -2.06715 | 10014 ft | 244 kts | 233° |
| 2026-05-07 16:48 | 54.16941 | -2.09095 | 10013 ft | 245 kts | 233° |
| 2026-05-07 16:48 | 54.15967 | -2.11471 | 10022 ft | 244 kts | 232° |
| 2026-05-07 16:48 | 54.14955 | -2.13809 | 10009 ft | 246 kts | 230° |
| 2026-05-07 16:48 | 54.13904 | -2.16112 | 10016 ft | 245 kts | 230° |
| 2026-05-07 16:49 | 54.12849 | -2.18407 | 10005 ft | 246 kts | 230° |
| 2026-05-07 16:49 | 54.11791 | -2.20706 | 10009 ft | 247 kts | 230° |
| 2026-05-07 16:49 | 54.10730 | -2.23011 | 10015 ft | 248 kts | 230° |
| 2026-05-07 16:49 | 54.09677 | -2.25299 | 10010 ft | 249 kts | 230° |
| 2026-05-07 16:50 | 54.08605 | -2.27626 | 10007 ft | 250 kts | 230° |
| 2026-05-07 16:50 | 54.07529 | -2.29962 | 10010 ft | 251 kts | 230° |
| 2026-05-07 16:50 | 54.06453 | -2.32300 | 9998 ft | 251 kts | 229° |
| 2026-05-07 16:50 | 54.05381 | -2.34617 | 9972 ft | 248 kts | 229° |
| 2026-05-07 16:51 | 54.04321 | -2.36911 | 9930 ft | 245 kts | 230° |
| 2026-05-07 16:51 | 54.03269 | -2.39194 | 9847 ft | 245 kts | 230° |
| 2026-05-07 16:51 | 54.02188 | -2.41440 | 9744 ft | 245 kts | 221° |
| 2026-05-07 16:51 | 54.00721 | -2.42832 | 9638 ft | 244 kts | 194° |
| 2026-05-07 16:52 | 53.99039 | -2.43081 | 9568 ft | 245 kts | 176° |
| 2026-05-07 16:52 | 53.97342 | -2.42706 | 9483 ft | 247 kts | 173° |
| 2026-05-07 16:52 | 53.95641 | -2.42259 | 9378 ft | 247 kts | 173° |
| 2026-05-07 16:52 | 53.93941 | -2.41806 | 9302 ft | 247 kts | 173° |
| 2026-05-07 16:53 | 53.92246 | -2.41359 | 9240 ft | 246 kts | 173° |
| 2026-05-07 16:53 | 53.90555 | -2.40917 | 9191 ft | 245 kts | 173° |
| 2026-05-07 16:53 | 53.88870 | -2.40482 | 9111 ft | 245 kts | 173° |
| 2026-05-07 16:53 | 53.87181 | -2.40050 | 9012 ft | 246 kts | 173° |
| 2026-05-07 16:54 | 53.85491 | -2.39619 | 8952 ft | 245 kts | 173° |
| 2026-05-07 16:54 | 53.83809 | -2.39192 | 8898 ft | 244 kts | 173° |
| 2026-05-07 16:54 | 53.82130 | -2.38768 | 8791 ft | 245 kts | 173° |
| 2026-05-07 16:54 | 53.80452 | -2.38336 | 8682 ft | 242 kts | 172° |
| 2026-05-07 16:55 | 53.78792 | -2.37894 | 8396 ft | 241 kts | 172° |
| 2026-05-07 16:55 | 53.77132 | -2.37465 | 8075 ft | 242 kts | 172° |
| 2026-05-07 16:55 | 53.75469 | -2.37046 | 7792 ft | 241 kts | 172° |
| 2026-05-07 16:55 | 53.73813 | -2.36631 | 7518 ft | 240 kts | 172° |
| 2026-05-07 16:56 | 53.72172 | -2.36222 | 7270 ft | 237 kts | 172° |
| 2026-05-07 16:56 | 53.70536 | -2.35815 | 6983 ft | 237 kts | 173° |
| 2026-05-07 16:56 | 53.67285 | -2.34868 | 6417 ft | 239 kts | 159° |
| 2026-05-07 16:57 | 53.66017 | -2.33067 | 6068 ft | 246 kts | 123° |
| 2026-05-07 16:57 | 53.65226 | -2.30527 | 5827 ft | 244 kts | 120° |
| 2026-05-07 16:57 | 53.64451 | -2.27988 | 5557 ft | 243 kts | 120° |
| 2026-05-07 16:57 | 53.63677 | -2.25450 | 5269 ft | 243 kts | 120° |
| 2026-05-07 16:58 | 53.62910 | -2.22928 | 5063 ft | 241 kts | 120° |
| 2026-05-07 16:58 | 53.62154 | -2.20436 | 4862 ft | 238 kts | 119° |
| 2026-05-07 16:58 | 53.61400 | -2.17958 | 4577 ft | 238 kts | 120° |
| 2026-05-07 16:58 | 53.60643 | -2.15476 | 4316 ft | 238 kts | 120° |
| 2026-05-07 16:59 | 53.59895 | -2.13006 | 4071 ft | 236 kts | 120° |
| 2026-05-07 16:59 | 53.59153 | -2.10552 | 3827 ft | 235 kts | 120° |
| 2026-05-07 16:59 | 53.58417 | -2.08109 | 3601 ft | 233 kts | 119° |
| 2026-05-07 16:59 | 53.57681 | -2.05719 | 3506 ft | 227 kts | 120° |
| 2026-05-07 17:00 | 53.56944 | -2.03380 | 3486 ft | 226 kts | 121° |
| 2026-05-07 17:00 | 53.56199 | -2.01049 | 3490 ft | 226 kts | 120° |
| 2026-05-07 17:00 | 53.55457 | -1.98696 | 3498 ft | 228 kts | 120° |
| 2026-05-07 17:00 | 53.54545 | -1.96565 | 3477 ft | 224 kts | 145° |
| 2026-05-07 17:01 | 53.53143 | -1.95611 | 3484 ft | 220 kts | 178° |
| 2026-05-07 17:01 | 53.51658 | -1.95966 | 3505 ft | 219 kts | 193° |
| 2026-05-07 17:01 | 53.50227 | -1.96921 | 3475 ft | 220 kts | 215° |
| 2026-05-07 17:01 | 53.49272 | -1.98818 | 3501 ft | 212 kts | 232° |